Time;durP1;ratioP1;P1;durP2;ratioP2;P2;SDS_P1;SDS_P2;PMS_P1;PMS_P2;Temp;Humidity;BMP_temperature;BMP_pressure;BME280_temperature;BME280_humidity;BME280_pressure;Samples;Min_cycle;Max_cycle;Signal;HPM_P1;HPM_P2
2023/03/24 00:00:11;;;;;;;;;;;11.00;99.90;;;;;;5021037;28;19926;-63
2023/03/24 00:02:40;;;;;;;;;;;11.10;99.90;;;;;;5021780;28;20277;-62
2023/03/24 00:05:07;;;;;;;;;;;11.00;99.90;;;;;;5021037;28;19926;-62
2023/03/24 00:07:37;;;;;;;;;;;11.00;99.90;;;;;;5021405;28;19929;-62
2023/03/24 00:10:05;;;;;;;;;;;11.00;99.90;;;;;;5021148;28;20399;-62
2023/03/24 00:12:33;;;;;;;;;;;11.00;99.90;;;;;;5017919;28;19933;-62
2023/03/24 00:15:01;;;;;;;;;;;11.10;99.90;;;;;;5021817;28;19925;-63
2023/03/24 00:17:28;;;;;;;;;;;11.20;99.90;;;;;;5023692;28;19979;-63
2023/03/24 00:19:55;;;;;;;;;;;11.10;99.90;;;;;;5022311;28;19955;-64
2023/03/24 00:22:21;;;;;;;;;;;11.00;99.90;;;;;;5020945;28;19972;-64
2023/03/24 00:24:48;;;;;;;;;;;11.10;99.90;;;;;;5031544;28;20634;-62
2023/03/24 00:27:16;;;;;;;;;;;11.10;99.90;;;;;;5022660;28;19926;-63
2023/03/24 00:29:44;;;;;;;;;;;11.10;99.90;;;;;;5023530;28;20011;-63
2023/03/24 00:32:10;;;;;;;;;;;11.10;99.90;;;;;;5022177;28;19929;-63
2023/03/24 00:34:37;;;;;;;;;;;11.10;99.90;;;;;;5020754;28;19925;-63
2023/03/24 00:37:04;;;;;;;;;;;11.10;99.90;;;;;;5022709;28;19983;-62
2023/03/24 00:39:31;;;;;;;;;;;11.10;99.90;;;;;;5017786;28;20400;-63
2023/03/24 00:42:00;;;;;;;;;;;11.10;99.90;;;;;;5023320;28;19929;-63
2023/03/24 00:44:27;;;;;;;;;;;11.10;99.90;;;;;;5022643;28;19925;-62
2023/03/24 00:46:55;;;;;;;;;;;11.20;99.90;;;;;;5020501;28;19936;-63
2023/03/24 00:49:40;;;;;;;;;;;11.20;99.90;;;;;;5022198;28;20028;-62
2023/03/24 00:52:08;;;;;;;;;;;11.20;99.90;;;;;;5019673;28;19956;-62
2023/03/24 00:54:35;;;;;;;;;;;11.20;99.90;;;;;;5029253;28;19941;-62
2023/03/24 00:57:02;;;;;;;;;;;11.30;99.90;;;;;;5031202;28;19925;-63
2023/03/24 00:59:29;;;;;;;;;;;11.20;99.90;;;;;;5021097;28;19926;-63
2023/03/24 01:01:57;;;;;;;;;;;11.30;99.90;;;;;;5019236;28;20336;-62
2023/03/24 01:04:25;;;;;;;;;;;11.30;99.90;;;;;;5022557;28;20020;-63
2023/03/24 01:06:53;;;;;;;;;;;11.30;99.90;;;;;;5020471;28;19932;-62
2023/03/24 01:09:20;;;;;;;;;;;11.30;99.90;;;;;;5024843;28;20019;-63
2023/03/24 01:11:47;;;;;;;;;;;11.30;99.90;;;;;;5026530;28;20016;-63
2023/03/24 01:14:14;;;;;;;;;;;11.30;99.90;;;;;;5024549;28;19936;-64
2023/03/24 01:16:41;;;;;;;;;;;11.30;99.90;;;;;;5023887;28;19925;-63
2023/03/24 01:19:09;;;;;;;;;;;11.30;99.90;;;;;;5026623;28;19925;-63
2023/03/24 01:21:36;;;;;;;;;;;11.30;99.90;;;;;;5025647;28;19925;-64
2023/03/24 01:24:03;;;;;;;;;;;11.30;99.90;;;;;;5029658;28;20395;-62
2023/03/24 01:26:30;;;;;;;;;;;11.30;99.90;;;;;;5035292;28;19936;-63
2023/03/24 01:28:57;;;;;;;;;;;11.30;99.90;;;;;;5025862;28;19925;-63
2023/03/24 01:31:24;;;;;;;;;;;11.30;99.90;;;;;;5024191;28;19944;-63
2023/03/24 01:33:50;;;;;;;;;;;11.30;99.90;;;;;;5024426;28;19972;-63
2023/03/24 01:36:18;;;;;;;;;;;11.30;99.90;;;;;;5025964;28;19929;-62
2023/03/24 01:38:45;;;;;;;;;;;11.30;99.90;;;;;;5024508;28;19932;-62
2023/03/24 01:41:12;;;;;;;;;;;11.30;99.90;;;;;;5023448;28;20430;-63
2023/03/24 01:43:38;;;;;;;;;;;11.30;99.90;;;;;;5023313;28;19925;-62
2023/03/24 01:46:07;;;;;;;;;;;11.20;99.90;;;;;;5024060;28;19980;-63
2023/03/24 01:48:36;;;;;;;;;;;11.20;99.90;;;;;;5025771;28;20399;-62
2023/03/24 01:51:06;;;;;;;;;;;11.20;99.90;;;;;;5024734;28;19929;-63
2023/03/24 01:53:35;;;;;;;;;;;11.20;99.90;;;;;;5027514;28;19932;-63
2023/03/24 01:56:02;;;;;;;;;;;11.30;99.90;;;;;;5038436;28;20354;-63
2023/03/24 01:58:30;;;;;;;;;;;11.30;99.90;;;;;;5022899;28;19925;-64
2023/03/24 02:00:57;;;;;;;;;;;11.30;99.90;;;;;;5023297;28;19933;-63
2023/03/24 02:03:25;;;;;;;;;;;11.30;99.90;;;;;;5023160;28;19930;-62
2023/03/24 02:05:53;;;;;;;;;;;11.30;99.90;;;;;;5026400;28;20280;-63
2023/03/24 02:08:22;;;;;;;;;;;11.40;99.90;;;;;;5025373;28;19925;-63
2023/03/24 02:10:51;;;;;;;;;;;11.40;99.90;;;;;;5023216;28;19926;-62
2023/03/24 02:13:18;;;;;;;;;;;11.30;99.90;;;;;;5023652;28;20343;-62
2023/03/24 02:15:48;;;;;;;;;;;11.40;99.90;;;;;;5025474;28;19933;-63
2023/03/24 02:18:17;;;;;;;;;;;11.30;99.90;;;;;;5024397;28;19948;-61
2023/03/24 02:21:11;;;;;;;;;;;11.40;99.90;;;;;;5021608;28;20032;-63
2023/03/24 02:23:57;;;;;;;;;;;11.40;99.90;;;;;;5028158;28;19979;-64
2023/03/24 02:26:46;;;;;;;;;;;11.40;99.90;;;;;;5027702;28;20133;-63
2023/03/24 02:29:30;;;;;;;;;;;11.50;99.90;;;;;;5021235;28;19979;-63
2023/03/24 02:32:23;;;;;;;;;;;11.40;99.90;;;;;;5024990;28;20396;-63
2023/03/24 02:35:17;;;;;;;;;;;11.50;99.90;;;;;;4982914;28;19925;-62
2023/03/24 02:37:58;;;;;;;;;;;11.40;99.90;;;;;;4993167;28;20510;-62
2023/03/24 02:40:32;;;;;;;;;;;11.40;99.90;;;;;;5021226;28;19933;-62
2023/03/24 02:43:10;;;;;;;;;;;11.40;99.90;;;;;;5025174;28;19979;-63
2023/03/24 02:45:39;;;;;;;;;;;11.40;99.90;;;;;;5024762;28;19925;-63
2023/03/24 02:48:10;;;;;;;;;;;11.50;99.90;;;;;;5023009;28;20415;-62
2023/03/24 02:50:39;;;;;;;;;;;11.50;99.90;;;;;;5021942;28;19972;-59
2023/03/24 02:53:08;;;;;;;;;;;11.50;99.90;;;;;;5025864;28;19929;-60
2023/03/24 02:55:40;;;;;;;;;;;11.50;99.90;;;;;;5031246;28;20024;-62
2023/03/24 02:58:09;;;;;;;;;;;11.50;99.90;;;;;;5022929;28;20366;-61
2023/03/24 03:00:38;;;;;;;;;;;11.50;99.90;;;;;;5024452;28;19929;-62
2023/03/24 03:03:07;;;;;;;;;;;11.60;99.90;;;;;;5023531;28;19932;-61
2023/03/24 03:05:35;;;;;;;;;;;11.60;99.90;;;;;;5021800;28;20012;-61
2023/03/24 03:08:04;;;;;;;;;;;11.60;99.90;;;;;;5023943;28;19932;-61
2023/03/24 03:10:33;;;;;;;;;;;11.70;99.90;;;;;;5026456;28;19925;-63
2023/03/24 03:13:02;;;;;;;;;;;11.70;99.90;;;;;;5026080;28;20029;-60
2023/03/24 03:15:31;;;;;;;;;;;11.70;99.90;;;;;;5025932;28;19985;-64
2023/03/24 03:18:01;;;;;;;;;;;11.80;99.90;;;;;;5026408;28;19926;-63
2023/03/24 03:20:29;;;;;;;;;;;11.80;99.90;;;;;;5026620;28;19955;-63
2023/03/24 03:22:58;;;;;;;;;;;11.80;99.90;;;;;;5025822;28;20019;-63
2023/03/24 03:25:27;;;;;;;;;;;11.90;99.90;;;;;;5027023;28;19929;-63
2023/03/24 03:27:55;;;;;;;;;;;11.90;99.90;;;;;;5018060;28;19932;-62
2023/03/24 03:30:26;;;;;;;;;;;11.90;99.90;;;;;;5021521;28;19926;-63
2023/03/24 03:32:56;;;;;;;;;;;11.90;99.90;;;;;;5022062;28;19926;-62
2023/03/24 03:35:24;;;;;;;;;;;11.90;99.90;;;;;;5021412;28;19926;-63
2023/03/24 03:37:54;;;;;;;;;;;11.90;99.90;;;;;;5021605;28;19926;-62
2023/03/24 03:40:22;;;;;;;;;;;12.00;99.90;;;;;;5021228;28;20392;-62
2023/03/24 03:42:50;;;;;;;;;;;12.00;99.90;;;;;;5021804;28;19925;-62
2023/03/24 03:45:16;;;;;;;;;;;12.10;99.90;;;;;;5021782;28;19926;-64
2023/03/24 03:47:45;;;;;;;;;;;12.10;99.90;;;;;;5023822;28;19928;-62
2023/03/24 03:50:12;;;;;;;;;;;12.00;99.90;;;;;;5022572;28;19925;-64
2023/03/24 03:52:40;;;;;;;;;;;12.10;99.90;;;;;;5021072;28;19926;-62
2023/03/24 03:55:07;;;;;;;;;;;12.10;99.90;;;;;;5032527;28;19924;-63
2023/03/24 03:57:35;;;;;;;;;;;12.10;99.90;;;;;;5026938;28;19933;-63
2023/03/24 04:00:10;;;;;;;;;;;12.10;99.90;;;;;;5021527;28;19925;-63
2023/03/24 04:02:43;;;;;;;;;;;12.00;99.90;;;;;;5021318;28;19934;-62
2023/03/24 04:05:19;;;;;;;;;;;12.00;99.90;;;;;;5021958;28;19971;-63
2023/03/24 04:07:56;;;;;;;;;;;11.90;99.90;;;;;;5021378;28;19956;-62
2023/03/24 04:10:24;;;;;;;;;;;11.90;99.90;;;;;;5021006;28;19948;-63
2023/03/24 04:13:05;;;;;;;;;;;11.80;99.90;;;;;;5022164;28;19925;-63
2023/03/24 04:15:41;;;;;;;;;;;11.80;99.90;;;;;;5021912;28;19995;-62
2023/03/24 04:18:14;;;;;;;;;;;11.80;99.90;;;;;;5020704;28;20407;-62
2023/03/24 04:20:45;;;;;;;;;;;11.90;99.90;;;;;;5021491;28;20317;-63
2023/03/24 04:23:18;;;;;;;;;;;11.90;99.90;;;;;;5022971;28;20450;-63
2023/03/24 04:25:49;;;;;;;;;;;12.10;99.90;;;;;;5037400;28;19926;-63
2023/03/24 04:28:25;;;;;;;;;;;12.10;99.90;;;;;;5021971;28;20380;-63
2023/03/24 04:30:54;;;;;;;;;;;12.10;99.90;;;;;;5019617;28;19925;-62
2023/03/24 04:33:27;;;;;;;;;;;12.00;99.90;;;;;;5023405;28;19971;-63
2023/03/24 04:36:00;;;;;;;;;;;12.00;99.90;;;;;;5021610;28;19925;-63
2023/03/24 04:38:27;;;;;;;;;;;12.00;99.90;;;;;;5021107;28;19925;-64
2023/03/24 04:40:55;;;;;;;;;;;11.90;99.90;;;;;;5022645;28;19925;-64
2023/03/24 04:43:25;;;;;;;;;;;12.00;99.90;;;;;;5025653;28;19925;-64
2023/03/24 04:45:52;;;;;;;;;;;11.90;99.90;;;;;;5025046;28;19926;-64
2023/03/24 04:48:19;;;;;;;;;;;11.90;99.90;;;;;;5025017;28;19932;-63
2023/03/24 04:50:49;;;;;;;;;;;11.80;99.90;;;;;;5024026;28;19940;-64
2023/03/24 04:53:18;;;;;;;;;;;11.80;99.90;;;;;;5026576;28;19932;-63
2023/03/24 04:55:50;;;;;;;;;;;11.80;99.90;;;;;;5037736;28;19933;-64
2023/03/24 04:58:17;;;;;;;;;;;11.80;99.90;;;;;;5025382;28;19933;-64
2023/03/24 05:00:44;;;;;;;;;;;11.90;99.90;;;;;;5023777;28;19979;-64
2023/03/24 05:03:12;;;;;;;;;;;11.80;99.90;;;;;;5026019;28;19945;-63
2023/03/24 05:05:39;;;;;;;;;;;11.80;99.90;;;;;;5024294;28;19948;-64
2023/03/24 05:08:07;;;;;;;;;;;11.70;99.90;;;;;;5024312;28;20376;-64
2023/03/24 05:10:35;;;;;;;;;;;11.80;99.90;;;;;;5024171;28;19933;-64
2023/03/24 05:13:02;;;;;;;;;;;11.80;99.90;;;;;;5026135;28;19960;-63
2023/03/24 05:15:29;;;;;;;;;;;11.80;99.90;;;;;;5025914;28;20391;-63
2023/03/24 05:17:55;;;;;;;;;;;11.80;99.90;;;;;;5023942;28;20616;-63
2023/03/24 05:20:22;;;;;;;;;;;11.70;99.90;;;;;;5025038;28;19964;-64
2023/03/24 05:22:49;;;;;;;;;;;11.70;99.90;;;;;;5026482;28;19925;-64
2023/03/24 05:25:15;;;;;;;;;;;11.70;99.90;;;;;;5033590;28;19925;-63
2023/03/24 05:27:44;;;;;;;;;;;11.70;99.90;;;;;;5026504;28;19933;-64
2023/03/24 05:30:11;;;;;;;;;;;11.70;99.90;;;;;;5023577;28;20276;-64
2023/03/24 05:32:37;;;;;;;;;;;11.70;99.90;;;;;;5025010;28;19962;-63
2023/03/24 05:35:04;;;;;;;;;;;11.70;99.90;;;;;;5025800;28;19929;-64
2023/03/24 05:37:31;;;;;;;;;;;11.70;99.90;;;;;;5022267;28;19925;-63
2023/03/24 05:39:57;;;;;;;;;;;11.70;99.90;;;;;;5025545;28;19987;-63
2023/03/24 05:42:24;;;;;;;;;;;11.60;99.90;;;;;;5023500;28;19952;-63
2023/03/24 05:44:52;;;;;;;;;;;11.50;99.90;;;;;;5024043;28;19973;-64
2023/03/24 05:47:19;;;;;;;;;;;11.50;99.90;;;;;;5030726;28;19947;-64
2023/03/24 05:49:46;;;;;;;;;;;11.50;99.90;;;;;;5037673;28;19925;-64
2023/03/24 05:52:14;;;;;;;;;;;11.50;99.90;;;;;;5037953;28;20334;-64
2023/03/24 05:54:40;;;;;;;;;;;11.50;99.90;;;;;;5032668;28;20300;-64
2023/03/24 05:57:07;;;;;;;;;;;11.50;99.90;;;;;;5036118;28;19972;-64
2023/03/24 05:59:34;;;;;;;;;;;11.40;99.90;;;;;;5030684;28;19925;-64
2023/03/24 06:02:02;;;;;;;;;;;11.20;99.90;;;;;;5026461;28;20339;-65
2023/03/24 06:04:29;;;;;;;;;;;11.10;99.90;;;;;;5026795;28;19925;-64
2023/03/24 06:06:57;;;;;;;;;;;10.90;99.90;;;;;;5024606;28;19928;-63
2023/03/24 06:09:24;;;;;;;;;;;10.90;99.90;;;;;;5025051;28;19925;-64
2023/03/24 06:11:51;;;;;;;;;;;10.80;99.90;;;;;;5021092;28;19967;-64
2023/03/24 06:14:17;;;;;;;;;;;10.80;99.90;;;;;;5023866;28;20412;-63
2023/03/24 06:16:44;;;;;;;;;;;10.80;99.90;;;;;;5025827;28;19926;-64
2023/03/24 06:19:12;;;;;;;;;;;10.70;99.90;;;;;;5027022;28;19948;-63
2023/03/24 06:21:38;;;;;;;;;;;10.70;99.90;;;;;;5026335;28;19925;-62
2023/03/24 06:24:05;;;;;;;;;;;10.70;99.90;;;;;;5028394;28;20005;-63
2023/03/24 06:26:31;;;;;;;;;;;10.80;99.90;;;;;;5033421;28;19960;-63
2023/03/24 06:28:58;;;;;;;;;;;10.80;99.90;;;;;;5022420;28;19933;-63
2023/03/24 06:31:28;;;;;;;;;;;10.70;99.90;;;;;;5042310;28;20024;-64
2023/03/24 06:33:54;;;;;;;;;;;10.60;99.90;;;;;;5022020;28;19929;-60
2023/03/24 06:36:24;;;;;;;;;;;10.50;99.90;;;;;;5020864;28;19932;-58
2023/03/24 06:38:51;;;;;;;;;;;10.40;99.90;;;;;;5023685;28;20012;-60
2023/03/24 06:41:17;;;;;;;;;;;10.30;99.90;;;;;;5021748;28;19983;-60
2023/03/24 06:43:44;;;;;;;;;;;10.30;99.90;;;;;;5023038;28;19926;-61
2023/03/24 06:46:10;;;;;;;;;;;10.30;99.90;;;;;;5027642;28;19925;-61
2023/03/24 06:48:37;;;;;;;;;;;10.30;99.90;;;;;;5026196;28;20015;-59
2023/03/24 06:51:05;;;;;;;;;;;10.30;99.90;;;;;;5041394;28;20014;-62
2023/03/24 06:53:32;;;;;;;;;;;10.30;99.90;;;;;;5035198;28;19933;-68
2023/03/24 06:56:06;;;;;;;;;;;10.40;99.90;;;;;;5055211;28;19925;-72
2023/03/24 06:58:33;;;;;;;;;;;10.50;99.90;;;;;;5024690;28;19952;-72
2023/03/24 07:01:00;;;;;;;;;;;10.60;99.90;;;;;;5041924;28;19938;-70
2023/03/24 07:03:26;;;;;;;;;;;10.60;99.90;;;;;;5021597;28;19948;-69
2023/03/24 07:05:53;;;;;;;;;;;10.60;99.90;;;;;;5021896;28;19975;-68
2023/03/24 07:08:19;;;;;;;;;;;10.40;99.90;;;;;;5023728;28;19934;-70
2023/03/24 07:10:47;;;;;;;;;;;10.50;99.90;;;;;;5030663;28;20007;-63
2023/03/24 07:13:14;;;;;;;;;;;10.60;99.90;;;;;;5028772;28;19937;-61
2023/03/24 07:15:41;;;;;;;;;;;10.50;99.90;;;;;;5027207;28;19933;-63
2023/03/24 07:18:07;;;;;;;;;;;10.60;99.90;;;;;;5022817;28;19925;-63
2023/03/24 07:20:34;;;;;;;;;;;10.40;99.90;;;;;;5023381;28;19925;-63
2023/03/24 07:23:01;;;;;;;;;;;10.40;99.90;;;;;;5020713;28;20013;-61
2023/03/24 07:25:27;;;;;;;;;;;10.40;99.90;;;;;;5034143;28;20395;-59
2023/03/24 07:27:56;;;;;;;;;;;10.40;99.90;;;;;;5035732;28;20256;-61
2023/03/24 07:30:23;;;;;;;;;;;10.30;99.90;;;;;;5028407;28;19991;-62
2023/03/24 07:32:49;;;;;;;;;;;10.30;99.90;;;;;;5029034;28;19928;-64
2023/03/24 07:35:16;;;;;;;;;;;10.40;99.90;;;;;;5028726;28;19978;-64
2023/03/24 07:37:43;;;;;;;;;;;10.40;99.90;;;;;;5026510;28;19925;-64
2023/03/24 07:40:11;;;;;;;;;;;10.30;99.90;;;;;;5022489;28;20004;-63
2023/03/24 07:42:38;;;;;;;;;;;10.30;99.90;;;;;;5024866;28;19968;-63
2023/03/24 07:45:07;;;;;;;;;;;10.30;99.90;;;;;;5020951;28;19926;-63
2023/03/24 07:47:34;;;;;;;;;;;10.50;99.90;;;;;;5031950;28;20288;-64
2023/03/24 07:50:03;;;;;;;;;;;10.60;99.90;;;;;;5032261;28;19925;-61
2023/03/24 07:52:30;;;;;;;;;;;10.70;99.90;;;;;;5027648;28;19933;-60
2023/03/24 07:54:56;;;;;;;;;;;10.80;99.90;;;;;;5029962;28;19935;-58
2023/03/24 07:57:23;;;;;;;;;;;10.60;99.90;;;;;;5020883;28;19971;-62
2023/03/24 07:59:49;;;;;;;;;;;10.90;90.30;;;;;;5022935;28;19925;-63
2023/03/24 08:02:17;;;;;;;;;;;10.90;99.90;;;;;;5030149;28;20043;-61
2023/03/24 08:04:45;;;;;;;;;;;10.90;99.90;;;;;;5030170;28;19926;-60
2023/03/24 08:07:12;;;;;;;;;;;11.00;99.90;;;;;;5027479;28;19932;-61
2023/03/24 08:09:39;;;;;;;;;;;11.10;99.90;;;;;;5025002;28;19932;-63
2023/03/24 08:12:05;;;;;;;;;;;11.10;83.80;;;;;;5026717;28;19979;-64
2023/03/24 08:14:32;;;;;;;;;;;11.20;99.90;;;;;;5020367;28;19925;-63
2023/03/24 08:16:58;;;;;;;;;;;11.30;99.90;;;;;;5023766;28;19975;-63
2023/03/24 08:19:26;;;;;;;;;;;11.40;77.80;;;;;;5026308;28;20296;-63
2023/03/24 08:21:53;;;;;;;;;;;11.40;74.40;;;;;;5040120;28;19990;-63
2023/03/24 08:24:20;;;;;;;;;;;11.30;66.10;;;;;;5038020;28;20049;-64
2023/03/24 08:26:46;;;;;;;;;;;11.40;24.20;;;;;;5033159;28;20445;-65
2023/03/24 08:29:13;;;;;;;;;;;11.50;45.50;;;;;;5031317;28;19925;-63
2023/03/24 08:31:40;;;;;;;;;;;11.70;99.60;;;;;;5037594;28;19925;-64
2023/03/24 08:34:06;;;;;;;;;;;11.90;68.90;;;;;;5035132;28;20398;-65
2023/03/24 08:36:34;;;;;;;;;;;12.10;34.30;;;;;;5025267;28;19929;-64
2023/03/24 08:39:01;;;;;;;;;;;12.30;13.60;;;;;;5024763;28;19925;-64
2023/03/24 08:41:33;;;;;;;;;;;12.40;1.00;;;;;;5026265;28;19925;-61
2023/03/24 08:44:00;;;;;;;;;;;12.50;1.00;;;;;;5027158;28;20036;-64
2023/03/24 08:46:27;;;;;;;;;;;12.50;1.00;;;;;;5027282;28;19968;-64
2023/03/24 08:48:53;;;;;;;;;;;12.60;1.00;;;;;;5046843;28;19929;-65
2023/03/24 08:51:20;;;;;;;;;;;12.50;1.00;;;;;;5032794;28;19925;-62
2023/03/24 08:53:48;;;;;;;;;;;12.40;1.00;;;;;;5035819;28;19945;-64
2023/03/24 08:56:14;;;;;;;;;;;12.30;1.00;;;;;;5028249;28;19925;-68
2023/03/24 08:58:43;;;;;;;;;;;12.20;1.10;;;;;;5033452;28;19932;-63
2023/03/24 09:01:13;;;;;;;;;;;12.40;11.40;;;;;;5026844;28;19933;-65
2023/03/24 09:03:40;;;;;;;;;;;12.50;10.10;;;;;;5023981;28;19975;-64
2023/03/24 09:06:07;;;;;;;;;;;12.60;1.00;;;;;;5026192;28;19931;-68
2023/03/24 09:08:33;;;;;;;;;;;12.60;1.00;;;;;;5023411;28;19932;-63
2023/03/24 09:11:01;;;;;;;;;;;12.70;1.00;;;;;;5024536;28;20391;-64
2023/03/24 09:13:28;;;;;;;;;;;12.80;1.00;;;;;;5025299;28;19947;-66
2023/03/24 09:15:57;;;;;;;;;;;12.90;1.00;;;;;;5025278;28;20335;-67
2023/03/24 09:18:24;;;;;;;;;;;12.90;1.00;;;;;;5026003;28;19925;-67
2023/03/24 09:20:51;;;;;;;;;;;12.80;1.00;;;;;;5024911;28;19932;-66
2023/03/24 09:23:17;;;;;;;;;;;12.80;1.00;;;;;;5027955;28;19982;-65
2023/03/24 09:25:44;;;;;;;;;;;12.90;1.00;;;;;;5039882;28;19979;-66
2023/03/24 09:28:13;;;;;;;;;;;13.00;1.00;;;;;;5026219;28;20289;-66
2023/03/24 09:30:40;;;;;;;;;;;13.10;99.90;;;;;;5027119;28;19972;-66
2023/03/24 09:33:06;;;;;;;;;;;13.20;99.90;;;;;;5024813;28;20568;-67
2023/03/24 09:35:33;;;;;;;;;;;13.20;99.90;;;;;;5025264;28;19932;-66
2023/03/24 09:38:00;;;;;;;;;;;13.00;99.90;;;;;;5027300;28;19979;-64
2023/03/24 09:40:27;;;;;;;;;;;12.80;99.90;;;;;;5025126;28;19925;-67
2023/03/24 09:42:57;;;;;;;;;;;12.80;1.00;;;;;;5024698;28;20342;-63
2023/03/24 09:45:26;;;;;;;;;;;12.80;99.90;;;;;;5024373;28;19925;-62
2023/03/24 09:47:55;;;;;;;;;;;12.80;1.00;;;;;;5032370;28;19925;-62
2023/03/24 09:50:24;;;;;;;;;;;12.90;99.90;;;;;;5032944;28;20268;-63
2023/03/24 09:52:53;;;;;;;;;;;13.00;99.90;;;;;;5027832;28;19925;-64
2023/03/24 09:55:22;;;;;;;;;;;13.10;99.90;;;;;;5037454;28;19925;-61
2023/03/24 09:57:49;;;;;;;;;;;13.10;99.90;;;;;;5031816;28;20429;-62
2023/03/24 10:00:16;;;;;;;;;;;13.00;1.00;;;;;;5029655;28;19933;-62
2023/03/24 10:02:44;;;;;;;;;;;13.20;99.90;;;;;;5021235;28;20012;-63
2023/03/24 10:05:13;;;;;;;;;;;13.30;99.90;;;;;;5024878;28;19925;-63
2023/03/24 10:07:41;;;;;;;;;;;13.40;99.90;;;;;;5023871;28;19972;-65
2023/03/24 10:10:14;;;;;;;;;;;13.60;99.90;;;;;;5028091;28;19937;-65
2023/03/24 10:12:44;;;;;;;;;;;13.70;99.90;;;;;;5037745;28;20434;-64
2023/03/24 10:15:16;;;;;;;;;;;13.60;4.80;;;;;;5025746;28;20273;-64
2023/03/24 10:17:47;;;;;;;;;;;13.60;99.90;;;;;;5022863;28;20384;-64
2023/03/24 10:20:18;;;;;;;;;;;13.50;73.40;;;;;;5022424;28;19932;-66
2023/03/24 10:22:49;;;;;;;;;;;13.60;99.90;;;;;;5022866;28;19934;-66
2023/03/24 10:25:18;;;;;;;;;;;13.60;93.20;;;;;;5033768;28;19925;-65
2023/03/24 10:27:46;;;;;;;;;;;13.50;1.00;;;;;;5041094;28;19971;-67
2023/03/24 10:30:15;;;;;;;;;;;13.50;1.00;;;;;;5026210;28;19991;-66
2023/03/24 10:32:42;;;;;;;;;;;13.40;1.00;;;;;;5037175;28;19925;-65
2023/03/24 10:35:14;;;;;;;;;;;13.30;99.90;;;;;;5018394;28;20366;-66
2023/03/24 10:37:41;;;;;;;;;;;13.40;1.00;;;;;;5025485;28;19925;-66
2023/03/24 10:40:15;;;;;;;;;;;13.60;1.00;;;;;;5031019;28;19987;-64
2023/03/24 10:42:42;;;;;;;;;;;13.70;1.00;;;;;;5038710;28;19931;-66
2023/03/24 10:45:12;;;;;;;;;;;13.80;1.00;;;;;;5021784;28;20455;-65
2023/03/24 10:47:39;;;;;;;;;;;13.80;1.00;;;;;;5031226;28;19994;-61
2023/03/24 10:50:08;;;;;;;;;;;13.70;1.00;;;;;;5029898;28;19925;-63
2023/03/24 10:52:40;;;;;;;;;;;13.80;1.00;;;;;;5032038;28;19959;-63
2023/03/24 10:55:07;;;;;;;;;;;13.70;99.90;;;;;;5028078;28;19931;-65
2023/03/24 10:57:34;;;;;;;;;;;13.60;99.90;;;;;;5026701;28;19932;-65
2023/03/24 11:00:18;;;;;;;;;;;13.60;99.90;;;;;;5023756;28;20016;-66
2023/03/24 11:02:58;;;;;;;;;;;13.60;97.70;;;;;;5101942;27;20388;-65
2023/03/24 11:05:28;;;;;;;;;;;13.40;55.10;;;;;;5097767;28;19928;-65
2023/03/24 11:07:56;;;;;;;;;;;13.30;54.00;;;;;;5099350;28;19975;-64
2023/03/24 11:10:24;;;;;;;;;;;13.20;56.30;;;;;;5100847;28;19927;-63
2023/03/24 11:13:01;;;;;;;;;;;13.00;96.60;;;;;;5099388;28;19936;-63
2023/03/24 11:15:29;;;;;;;;;;;12.80;99.90;;;;;;5097851;28;19925;-64
2023/03/24 11:17:58;;;;;;;;;;;12.90;99.90;;;;;;5099098;28;20352;-64
2023/03/24 11:20:27;;;;;;;;;;;12.90;99.90;;;;;;5091100;28;19928;-63
2023/03/24 11:22:58;;;;;;;;;;;12.90;99.90;;;;;;5095871;28;19936;-63
2023/03/24 11:25:26;;;;;;;;;;;13.10;99.90;;;;;;5094234;28;19928;-61
2023/03/24 11:27:56;;;;;;;;;;;13.50;99.90;;;;;;5096540;28;20394;-65
2023/03/24 11:30:22;;;;;;;;;;;13.60;99.90;;;;;;5097908;28;19970;-64
2023/03/24 11:32:49;;;;;;;;;;;13.70;1.00;;;;;;5096594;28;19928;-65
2023/03/24 11:35:17;;;;;;;;;;;13.80;1.00;;;;;;5097076;28;20413;-63
2023/03/24 11:37:46;;;;;;;;;;;14.10;1.00;;;;;;5091056;28;20374;-63
2023/03/24 11:40:21;;;;;;;;;;;14.40;1.00;;;;;;5099565;28;19946;-69
2023/03/24 11:42:49;;;;;;;;;;;14.40;1.00;;;;;;5089905;28;20440;-69
2023/03/24 11:45:27;;;;;;;;;;;14.60;1.00;;;;;;5099384;28;19924;-70
2023/03/24 11:47:55;;;;;;;;;;;14.70;1.00;;;;;;5098830;28;19963;-68
2023/03/24 11:50:25;;;;;;;;;;;14.60;1.00;;;;;;5095823;28;20282;-66
2023/03/24 11:52:53;;;;;;;;;;;14.70;1.00;;;;;;5095893;28;19936;-70
2023/03/24 11:55:23;;;;;;;;;;;14.60;1.00;;;;;;5099020;28;20022;-73
2023/03/24 11:57:53;;;;;;;;;;;14.40;1.00;;;;;;5099485;28;20279;-69
2023/03/24 12:00:22;;;;;;;;;;;14.50;1.00;;;;;;5098940;28;19924;-66
2023/03/24 12:02:55;;;;;;;;;;;14.50;1.00;;;;;;5100458;28;20348;-67
2023/03/24 12:05:30;;;;;;;;;;;14.50;1.00;;;;;;5094005;28;19985;-65
2023/03/24 12:08:00;;;;;;;;;;;14.30;99.90;;;;;;5099007;28;19956;-67
2023/03/24 12:10:31;;;;;;;;;;;14.20;1.00;;;;;;5098880;28;19924;-67
2023/03/24 12:13:01;;;;;;;;;;;14.10;1.00;;;;;;5089956;28;19974;-65
2023/03/24 12:15:32;;;;;;;;;;;14.00;99.90;;;;;;5084714;28;20440;-70
2023/03/24 12:18:07;;;;;;;;;;;14.10;99.90;;;;;;5086361;28;19924;-72
2023/03/24 12:20:39;;;;;;;;;;;14.40;1.00;;;;;;5086909;28;19934;-71
2023/03/24 12:23:09;;;;;;;;;;;14.60;99.90;;;;;;5081465;28;19925;-68
2023/03/24 12:25:45;;;;;;;;;;;14.60;99.90;;;;;;5083147;28;19931;-67
2023/03/24 12:28:27;;;;;;;;;;;14.90;99.90;;;;;;5083368;28;19978;-67
2023/03/24 12:30:59;;;;;;;;;;;14.70;99.90;;;;;;5079517;28;19932;-68
2023/03/24 12:33:32;;;;;;;;;;;14.40;99.90;;;;;;5081469;28;19931;-69
2023/03/24 12:36:09;;;;;;;;;;;14.10;99.90;;;;;;5085388;28;19928;-67
2023/03/24 12:38:44;;;;;;;;;;;14.20;99.90;;;;;;5082184;28;19928;-67
2023/03/24 12:41:31;;;;;;;;;;;14.50;1.00;;;;;;5080952;28;19947;-70
2023/03/24 12:44:05;;;;;;;;;;;14.80;99.90;;;;;;5077871;28;19925;-69
2023/03/24 12:46:34;;;;;;;;;;;14.90;99.90;;;;;;5080977;28;19950;-68
2023/03/24 12:49:12;;;;;;;;;;;14.90;99.90;;;;;;5085726;28;20358;-68
2023/03/24 12:51:47;;;;;;;;;;;15.10;99.90;;;;;;5080506;28;19924;-69
2023/03/24 12:54:18;;;;;;;;;;;14.80;99.90;;;;;;5084858;28;19928;-68
2023/03/24 12:56:48;;;;;;;;;;;14.60;99.90;;;;;;5083061;28;19970;-69
2023/03/24 12:59:16;;;;;;;;;;;14.70;99.90;;;;;;5082661;28;19936;-68
2023/03/24 13:01:44;;;;;;;;;;;14.90;99.90;;;;;;5083149;28;19932;-68
2023/03/24 13:04:14;;;;;;;;;;;14.90;99.90;;;;;;5086553;28;19924;-69
2023/03/24 13:06:44;;;;;;;;;;;14.90;99.90;;;;;;5083386;28;19928;-71
2023/03/24 13:09:14;;;;;;;;;;;14.70;99.90;;;;;;5082631;28;19924;-70
2023/03/24 13:11:45;;;;;;;;;;;14.60;99.90;;;;;;5080592;28;19924;-69
2023/03/24 13:14:16;;;;;;;;;;;14.40;99.90;;;;;;5081864;28;19924;-69
2023/03/24 13:16:45;;;;;;;;;;;14.40;99.90;;;;;;5082091;28;19959;-70
2023/03/24 13:19:16;;;;;;;;;;;14.30;99.90;;;;;;5082037;28;19960;-69
2023/03/24 13:21:44;;;;;;;;;;;14.10;99.90;;;;;;5086948;28;19925;-69
2023/03/24 13:24:11;;;;;;;;;;;13.90;99.90;;;;;;5084515;28;19946;-60
2023/03/24 13:26:39;;;;;;;;;;;13.90;1.00;;;;;;5080468;28;19976;-63
2023/03/24 13:29:12;;;;;;;;;;;13.80;99.90;;;;;;5083891;28;19973;-61
2023/03/24 13:31:42;;;;;;;;;;;13.40;99.90;;;;;;5080905;28;20325;-63
2023/03/24 13:34:16;;;;;;;;;;;13.20;1.00;;;;;;5083587;28;19924;-63
2023/03/24 13:36:46;;;;;;;;;;;13.00;1.00;;;;;;5083591;28;19978;-63
2023/03/24 13:39:14;;;;;;;;;;;13.20;56.70;;;;;;5079540;28;19932;-66
2023/03/24 13:41:46;;;;;;;;;;;13.20;1.00;;;;;;5073755;28;19928;-68
2023/03/24 13:44:17;;;;;;;;;;;13.30;99.90;;;;;;5079849;28;20275;-66
2023/03/24 13:46:58;;;;;;;;;;;13.40;1.00;;;;;;5082223;28;20373;-67
2023/03/24 13:49:25;;;;;;;;;;;13.50;1.00;;;;;;5085081;28;19954;-61
2023/03/24 13:51:53;;;;;;;;;;;13.50;1.00;;;;;;5077977;28;19933;-62
2023/03/24 13:54:21;;;;;;;;;;;13.60;1.00;;;;;;5082285;28;19978;-63
2023/03/24 13:56:52;;;;;;;;;;;13.60;1.00;;;;;;5077307;28;19932;-63
2023/03/24 13:59:26;;;;;;;;;;;13.70;99.90;;;;;;5082232;28;20320;-62
2023/03/24 14:02:09;;;;;;;;;;;14.00;99.90;;;;;;5081419;28;20592;-62
2023/03/24 14:04:46;;;;;;;;;;;13.80;1.00;;;;;;5081155;28;19925;-63
2023/03/24 14:07:39;;;;;;;;;;;13.80;1.00;;;;;;5079901;28;19924;-63
2023/03/24 14:10:27;;;;;;;;;;;13.70;1.00;;;;;;5057541;28;20370;-62
2023/03/24 14:12:55;;;;;;;;;;;13.60;56.30;;;;;;5085031;28;20225;-62
2023/03/24 14:15:26;;;;;;;;;;;13.90;99.90;;;;;;5085232;28;19923;-66
2023/03/24 14:17:53;;;;;;;;;;;13.90;58.10;;;;;;5087035;28;20298;-62
2023/03/24 14:20:25;;;;;;;;;;;14.10;99.90;;;;;;5075480;28;19936;-63
2023/03/24 14:22:52;;;;;;;;;;;14.20;1.00;;;;;;5081921;28;19928;-63
2023/03/24 14:25:22;;;;;;;;;;;14.20;1.00;;;;;;5078137;28;19924;-63
2023/03/24 14:27:50;;;;;;;;;;;14.10;1.00;;;;;;5080884;28;19986;-63
2023/03/24 14:30:20;;;;;;;;;;;14.10;1.00;;;;;;5077594;28;19924;-62